上海/浦東 の空港の天気 - METARとTAF

上海浦東国際空港 ( ZSPD / PVG ) - 中華人民共和国 上海市
飛行場実況気象(Metar)
観測時間07/21 06:00 CST (07/20 22:00 UTC)
風向・風速南 2m/s
視程10km以上
天気現象
なし
気温28℃
湿度84%
気圧1008hPa
METARZSPD 202200Z 19002MPS CAVOK 28/25 Q1008 NOSIG
過去の天気等 Google飛行場航空写真 Wunderground天気予報

過去48時間のMETAR

飛行場予報(TAF)
発表時間: 7/20 23:12 CST (7/20 15:12 UTC)
予報対象時間: 21日2時 CST ~ 22日2時 CST
風向・風速南 4m/s
視程6,000m
全天の4割程度の雲 雲底高度 610m
TAF ZSPD 201512Z 2018/2118 17004MPS 6000 SCT020 TX39/2107Z TN28/2021Z